NK57 weather

Ross Heliport
Niagara Falls, New York, United States

Public forecast

Using degrees Fahrenheit for public forecast. Weather courtesy of forecast.io.

Closest aviation weather report (METAR) to Ross Heliport

Closest report is Niagara Falls International Airport, 0.9 nm (1.6 km) SSW. Retrieved 2020/06/06 03:53 UTC (55 minutes ago):

KIAG 060353Z AUTO 23008KT 8SM BKN100 20/18 A2980 RMK AO2 SLP088 T02000178

Closest aviation forecast (TAF) to Ross Heliport

Closest forecast is Niagara Falls International Airport, 0.9 nm (1.6 km) SSW. Retrieved 2020-06-06 00:27 UTC (4 hours ago):

TAF KIAG 052324Z 0600/0624 23010KT P6SM BKN250 FM060500 24006KT P6SM VCSH BKN060 FM060800 28006KT P6SM SCT080 FM061400 30010KT P6SM FEW250 FM061800 29010G18KT P6SM SCT060 FM062200 29008KT P6SM FEW200